Time;durP1;ratioP1;P1;durP2;ratioP2;P2;SDS_P1;SDS_P2;PMS_P1;PMS_P2;Temp;Humidity;BMP_temperature;BMP_pressure;BME280_temperature;BME280_humidity;BME280_pressure;Samples;Min_cycle;Max_cycle;Signal;HPM_P1;HPM_P2
2022/10/19 00:00:11;;;;;;;4.10;3.70;;;9.60;99.90;;;;;;5005233;28;20178;-82
2022/10/19 00:02:36;;;;;;;9.20;3.80;;;9.60;99.90;;;;;;5004718;28;20214;-82
2022/10/19 00:05:02;;;;;;;5.00;4.30;;;9.50;99.90;;;;;;5037705;28;20436;-83
2022/10/19 00:07:28;;;;;;;7.00;4.10;;;9.50;99.90;;;;;;5037933;28;20632;-83
2022/10/19 00:09:53;;;;;;;7.30;4.53;;;9.50;99.90;;;;;;5004917;28;20217;-83
2022/10/19 00:12:19;;;;;;;4.90;4.00;;;9.50;99.90;;;;;;5004905;28;20221;-84
2022/10/19 00:14:45;;;;;;;6.53;4.40;;;9.50;99.90;;;;;;5004500;28;20201;-81
2022/10/19 00:17:10;;;;;;;6.33;4.40;;;9.50;99.90;;;;;;5021626;28;20177;-82
2022/10/19 00:19:36;;;;;;;6.77;4.80;;;9.50;99.90;;;;;;5021660;28;20549;-83
2022/10/19 00:22:01;;;;;;;7.60;4.37;;;9.50;99.90;;;;;;5054939;28;20177;-82
2022/10/19 00:24:29;;;;;;;5.70;5.03;;;9.50;99.90;;;;;;5037466;28;20221;-82
2022/10/19 00:26:54;;;;;;;6.40;4.33;;;9.50;99.90;;;;;;5057291;28;20596;-84
2022/10/19 00:29:20;;;;;;;6.60;4.77;;;9.40;99.90;;;;;;5006200;28;20459;-83
2022/10/19 00:31:50;;;;;;;9.80;4.53;;;9.40;99.90;;;;;;5004006;28;20178;-84
2022/10/19 00:34:16;;;;;;;6.77;4.60;;;9.50;99.90;;;;;;5021101;28;21041;-84
2022/10/19 00:36:42;;;;;;;5.93;4.83;;;9.60;99.90;;;;;;5037030;28;20470;-82
2022/10/19 00:39:12;;;;;;;5.03;3.80;;;9.60;99.90;;;;;;5036504;28;20448;-82
2022/10/19 00:41:39;;;;;;;11.67;4.63;;;9.70;99.90;;;;;;5036971;28;20169;-82
2022/10/19 00:44:11;;;;;;;7.10;4.33;;;9.60;99.90;;;;;;5036795;28;20942;-82
2022/10/19 00:46:41;;;;;;;6.73;3.93;;;9.70;99.90;;;;;;5020306;28;20447;-81
2022/10/19 00:49:11;;;;;;;10.27;4.60;;;9.60;99.90;;;;;;5019988;28;20444;-83
2022/10/19 00:51:41;;;;;;;7.90;4.43;;;9.50;99.90;;;;;;5037093;28;20898;-83
2022/10/19 00:54:08;;;;;;;5.00;4.50;;;9.40;99.90;;;;;;5019935;28;20937;-82
2022/10/19 00:56:34;;;;;;;9.30;4.40;;;9.30;99.90;;;;;;5004115;28;20417;-84
2022/10/19 00:59:03;;;;;;;6.63;3.87;;;9.30;99.90;;;;;;5003853;28;20417;-83
2022/10/19 01:01:29;;;;;;;9.30;4.60;;;9.30;99.90;;;;;;5020385;28;20423;-83
2022/10/19 01:03:55;;;;;;;7.83;4.10;;;9.30;99.90;;;;;;4987647;28;20874;-83
2022/10/19 01:06:23;;;;;;;7.77;5.23;;;9.20;99.90;;;;;;5020300;28;20447;-82
2022/10/19 01:08:49;;;;;;;6.07;4.40;;;9.20;99.90;;;;;;5003734;28;20737;-82
2022/10/19 01:11:20;;;;;;;7.40;4.60;;;9.20;99.90;;;;;;5019720;28;20550;-82
2022/10/19 01:13:57;;;;;;;6.90;4.50;;;9.20;99.90;;;;;;5019854;28;20202;-82
2022/10/19 01:16:33;;;;;;;5.93;4.50;;;9.20;99.90;;;;;;5020446;28;20897;-81
2022/10/19 01:19:35;;;;;;;5.60;4.10;;;9.20;99.90;;;;;;5036599;28;20419;-82
2022/10/19 01:22:31;;;;;;;5.33;4.47;;;9.10;99.90;;;;;;5036663;28;20428;-82
2022/10/19 01:25:29;;;;;;;6.90;4.40;;;9.20;99.90;;;;;;5054136;28;20432;-83
2022/10/19 01:28:15;;;;;;;5.43;4.10;;;9.00;99.90;;;;;;5019469;28;20593;-80
2022/10/19 01:31:06;;;;;;;8.40;4.17;;;9.20;99.90;;;;;;5035924;28;20404;-82
2022/10/19 01:34:01;;;;;;;5.60;4.10;;;9.20;99.90;;;;;;5035637;28;20476;-82
2022/10/19 01:37:02;;;;;;;8.97;4.50;;;9.10;99.90;;;;;;5016546;28;20437;-82
2022/10/19 01:39:48;;;;;;;5.67;4.70;;;9.10;99.90;;;;;;4975754;28;20420;-83
2022/10/19 01:42:53;;;;;;;4.80;4.27;;;9.00;99.90;;;;;;5033890;28;20412;-81
2022/10/19 01:45:37;;;;;;;4.23;3.77;;;9.00;99.90;;;;;;4993982;28;20495;-84
2022/10/19 01:48:13;;;;;;;8.93;4.27;;;9.00;99.90;;;;;;5000090;28;20488;-82
2022/10/19 01:50:47;;;;;;;7.30;3.90;;;9.00;99.90;;;;;;5015353;28;20416;-84
2022/10/19 01:53:16;;;;;;;8.13;4.13;;;9.10;99.90;;;;;;5016113;28;20412;-83
2022/10/19 01:55:45;;;;;;;7.13;4.70;;;8.60;99.90;;;;;;4983475;28;20428;-82
2022/10/19 01:58:15;;;;;;;6.00;3.90;;;9.00;99.90;;;;;;5016183;28;20414;-82
2022/10/19 02:00:45;;;;;;;8.53;4.60;;;9.00;99.90;;;;;;4983612;28;20419;-83
2022/10/19 02:03:11;;;;;;;6.70;4.73;;;8.60;99.90;;;;;;5015839;28;20518;-83
2022/10/19 02:05:39;;;;;;;7.03;4.13;;;8.90;99.90;;;;;;5015359;28;20448;-83
2022/10/19 02:08:13;;;;;;;5.23;4.30;;;8.80;99.90;;;;;;4983061;28;20512;-82
2022/10/19 02:10:42;;;;;;;4.30;3.90;;;8.80;99.90;;;;;;4999626;28;20409;-83
2022/10/19 02:13:10;;;;;;;6.20;4.07;;;8.80;99.90;;;;;;4999037;28;20402;-82
2022/10/19 02:15:41;;;;;;;4.10;3.60;;;8.50;99.90;;;;;;5015837;28;20503;-84
2022/10/19 02:18:09;;;;;;;4.30;3.50;;;8.20;99.90;;;;;;4999096;28;20969;-81
2022/10/19 02:20:36;;;;;;;3.70;3.40;;;8.30;99.90;;;;;;5033576;28;20421;-83
2022/10/19 02:23:06;;;;;;;4.43;4.00;;;8.70;99.90;;;;;;4999101;28;20425;-82
2022/10/19 02:25:33;;;;;;;4.27;3.80;;;8.60;99.90;;;;;;5016642;28;20459;-82
2022/10/19 02:28:00;;;;;;;4.73;3.50;;;8.70;99.90;;;;;;5015701;28;20800;-84
2022/10/19 02:30:26;;;;;;;4.63;3.80;;;8.70;99.90;;;;;;4999770;28;20410;-84
2022/10/19 02:32:52;;;;;;;6.00;3.90;;;8.30;99.90;;;;;;4998649;28;20509;-82
2022/10/19 02:35:18;;;;;;;4.60;3.63;;;8.20;99.90;;;;;;4999413;28;20244;-82
2022/10/19 02:37:44;;;;;;;6.43;3.90;;;8.60;99.90;;;;;;4999032;28;20248;-83
2022/10/19 02:40:12;;;;;;;6.93;4.10;;;8.40;99.90;;;;;;4999334;28;20611;-82
2022/10/19 02:42:49;;;;;;;5.00;3.90;;;8.60;99.90;;;;;;5015003;28;20421;-82
2022/10/19 02:45:27;;;;;;;7.00;4.17;;;8.40;99.90;;;;;;4999405;28;20905;-83
2022/10/19 02:48:13;;;;;;;4.43;4.03;;;8.30;99.90;;;;;;5015127;28;20459;-82
2022/10/19 02:50:43;;;;;;;5.73;4.20;;;8.30;99.90;;;;;;5033580;28;20414;-82
2022/10/19 02:53:08;;;;;;;7.60;4.30;;;8.30;99.90;;;;;;5014822;28;20464;-82
2022/10/19 02:55:34;;;;;;;3.90;3.20;;;8.10;99.90;;;;;;5032658;28;20799;-83
2022/10/19 02:58:00;;;;;;;4.47;3.87;;;8.40;99.90;;;;;;4999742;28;20529;-83
2022/10/19 03:00:25;;;;;;;4.00;3.60;;;8.40;99.90;;;;;;5000073;28;20441;-82
2022/10/19 03:02:51;;;;;;;4.10;3.70;;;8.40;99.90;;;;;;5019384;28;20183;-82
2022/10/19 03:05:17;;;;;;;5.30;3.67;;;8.40;99.90;;;;;;5003222;28;20213;-80
2022/10/19 03:07:42;;;;;;;4.80;4.17;;;7.90;99.90;;;;;;5003117;28;20217;-82
2022/10/19 03:10:08;;;;;;;5.23;4.03;;;8.30;99.90;;;;;;5002876;28;20544;-82
2022/10/19 03:12:34;;;;;;;4.20;3.80;;;8.50;99.90;;;;;;5037251;28;20229;-81
2022/10/19 03:14:59;;;;;;;5.23;4.10;;;7.90;99.90;;;;;;5002840;28;20445;-82
2022/10/19 03:17:25;;;;;;;4.67;3.60;;;7.70;99.90;;;;;;5003418;28;20647;-81
2022/10/19 03:19:50;;;;;;;3.77;3.37;;;8.10;99.90;;;;;;5019168;28;20186;-83
2022/10/19 03:22:16;;;;;;;4.70;3.90;;;7.90;99.90;;;;;;5036923;28;20174;-83
2022/10/19 03:24:42;;;;;;;4.20;3.80;;;7.90;99.90;;;;;;5002245;28;20214;-83
2022/10/19 03:27:07;;;;;;;5.80;3.63;;;7.90;99.90;;;;;;5002835;28;20316;-82
2022/10/19 03:29:33;;;;;;;6.40;4.10;;;7.50;99.90;;;;;;5002639;28;20218;-84
2022/10/19 03:31:59;;;;;;;5.13;4.07;;;7.60;99.90;;;;;;5002500;28;20186;-83
2022/10/19 03:34:24;;;;;;;5.60;3.73;;;7.40;99.90;;;;;;4986388;28;20298;-82
2022/10/19 03:36:50;;;;;;;4.70;4.10;;;7.50;99.90;;;;;;5002341;28;20181;-82
2022/10/19 03:39:16;;;;;;;5.53;3.97;;;7.80;99.90;;;;;;5018552;28;20185;-83
2022/10/19 03:41:42;;;;;;;4.70;3.80;;;7.50;99.90;;;;;;5018949;28;20297;-81
2022/10/19 03:44:09;;;;;;;4.23;3.70;;;7.30;99.90;;;;;;5018603;28;20540;-82
2022/10/19 03:46:36;;;;;;;4.30;3.90;;;7.70;99.90;;;;;;5019395;28;20429;-83
2022/10/19 03:49:03;;;;;;;5.27;4.60;;;7.50;99.90;;;;;;5002417;28;20453;-83
2022/10/19 03:51:30;;;;;;;7.80;4.30;;;7.40;99.90;;;;;;5036499;28;20406;-84
2022/10/19 03:54:01;;;;;;;5.73;4.43;;;7.80;99.90;;;;;;5001947;28;20806;-82
2022/10/19 03:56:30;;;;;;;5.10;4.60;;;7.60;99.90;;;;;;5018157;28;20413;-83
2022/10/19 03:58:58;;;;;;;4.97;4.13;;;7.30;99.90;;;;;;5017953;28;20428;-84
2022/10/19 04:01:30;;;;;;;4.40;3.80;;;7.70;99.90;;;;;;5018425;28;20459;-83
2022/10/19 04:04:04;;;;;;;4.90;4.30;;;7.90;99.90;;;;;;5017704;28;20461;-82
2022/10/19 04:06:36;;;;;;;5.30;4.33;;;7.70;99.90;;;;;;5018095;28;20906;-82
2022/10/19 04:09:03;;;;;;;5.70;4.40;;;7.60;99.90;;;;;;5035966;28;20467;-84
2022/10/19 04:11:30;;;;;;;5.20;4.50;;;7.60;99.90;;;;;;5018572;28;20421;-83
2022/10/19 04:13:57;;;;;;;5.33;4.47;;;7.20;99.90;;;;;;5016805;28;20497;-82
2022/10/19 04:16:24;;;;;;;5.87;4.33;;;7.60;99.90;;;;;;5002163;28;20432;-83
2022/10/19 04:18:50;;;;;;;9.63;5.13;;;7.40;99.90;;;;;;5018110;28;20425;-82
2022/10/19 04:21:20;;;;;;;9.80;5.53;;;7.60;99.90;;;;;;5001752;28;20425;-82
2022/10/19 04:23:46;;;;;;;11.50;5.50;;;7.20;99.90;;;;;;5001017;28;20499;-81
2022/10/19 04:26:12;;;;;;;9.33;5.60;;;7.20;99.90;;;;;;5017395;28;20417;-83
2022/10/19 04:28:37;;;;;;;6.67;5.30;;;7.70;99.90;;;;;;5001592;28;20465;-82
2022/10/19 04:31:04;;;;;;;8.20;5.23;;;7.70;99.90;;;;;;5001173;28;20185;-82
2022/10/19 04:33:30;;;;;;;6.33;5.67;;;7.70;99.90;;;;;;5018013;28;20186;-82
2022/10/19 04:36:05;;;;;;;6.00;5.40;;;7.60;99.90;;;;;;5017595;28;20821;-83
2022/10/19 04:38:31;;;;;;;11.93;6.00;;;7.90;99.90;;;;;;5037789;28;20424;-83
2022/10/19 04:41:09;;;;;;;11.23;6.23;;;8.00;99.90;;;;;;5020798;28;20428;-82
2022/10/19 04:43:35;;;;;;;7.03;5.40;;;8.20;99.90;;;;;;4993842;28;20444;-83
2022/10/19 04:46:05;;;;;;;10.00;5.50;;;8.10;99.90;;;;;;5027783;28;20436;-84
2022/10/19 04:48:33;;;;;;;10.23;6.10;;;8.30;99.90;;;;;;5019023;28;20455;-86
2022/10/19 04:50:58;;;;;;;7.00;6.30;;;8.30;99.90;;;;;;5023154;28;20424;-84
2022/10/19 04:53:24;;;;;;;9.00;7.47;;;8.20;99.90;;;;;;5019795;28;20482;-81
2022/10/19 04:55:50;;;;;;;28.43;7.67;;;7.70;99.90;;;;;;5020758;28;20205;-83
2022/10/19 04:58:15;;;;;;;17.10;6.70;;;7.80;99.90;;;;;;5020846;28;20428;-82
2022/10/19 05:00:41;;;;;;;19.87;7.87;;;7.90;99.90;;;;;;5020869;28;20185;-83
2022/10/19 05:03:07;;;;;;;11.10;7.20;;;7.90;99.90;;;;;;5037401;28;20186;-81
2022/10/19 05:05:33;;;;;;;15.37;7.23;;;8.30;99.90;;;;;;5020617;28;20206;-82
2022/10/19 05:07:59;;;;;;;11.30;8.10;;;8.20;99.90;;;;;;5037559;28;20206;-81
2022/10/19 05:10:25;;;;;;;52.33;10.73;;;8.40;99.90;;;;;;5036512;28;20508;-83
2022/10/19 05:12:50;;;;;;;13.30;8.87;;;8.40;99.90;;;;;;5003845;28;20193;-83
2022/10/19 05:15:16;;;;;;;10.30;8.67;;;8.10;99.90;;;;;;5019997;28;20678;-82
2022/10/19 05:17:42;;;;;;;11.50;8.77;;;8.50;99.90;;;;;;5036682;28;20315;-82
2022/10/19 05:20:10;;;;;;;15.73;8.90;;;8.30;99.90;;;;;;5003442;28;20328;-83
2022/10/19 05:22:38;;;;;;;21.50;8.90;;;8.60;99.90;;;;;;5004089;28;20269;-84
2022/10/19 05:25:05;;;;;;;11.53;8.97;;;8.60;99.90;;;;;;5019991;28;20555;-81
2022/10/19 05:27:31;;;;;;;12.07;8.77;;;8.60;99.90;;;;;;5020391;28;20975;-82
2022/10/19 05:29:57;;;;;;;10.80;8.10;;;8.60;99.90;;;;;;5014039;28;20420;-84
2022/10/19 05:32:22;;;;;;;14.97;8.60;;;8.70;99.90;;;;;;5001390;28;20193;-81
2022/10/19 05:34:48;;;;;;;22.03;9.40;;;8.60;99.90;;;;;;5021148;28;20564;-82
2022/10/19 05:37:15;;;;;;;16.53;8.20;;;8.20;99.90;;;;;;5053268;28;20181;-83
2022/10/19 05:39:41;;;;;;;9.37;8.00;;;8.20;99.90;;;;;;5036295;28;20221;-83
2022/10/19 05:42:06;;;;;;;9.97;7.90;;;8.80;99.90;;;;;;5001029;28;20440;-81
2022/10/19 05:44:32;;;;;;;24.90;8.50;;;8.90;99.90;;;;;;5022676;28;20202;-83
2022/10/19 05:46:57;;;;;;;20.20;8.10;;;8.80;99.90;;;;;;5019268;28;20197;-83
2022/10/19 05:49:23;;;;;;;10.63;7.53;;;8.80;99.90;;;;;;5000466;28;20290;-82
2022/10/19 05:51:49;;;;;;;9.33;8.00;;;8.70;99.90;;;;;;5016802;28;20194;-81
2022/10/19 05:54:15;;;;;;;10.93;8.40;;;8.30;99.90;;;;;;5018368;28;20205;-82
2022/10/19 05:56:42;;;;;;;10.10;8.10;;;8.70;99.90;;;;;;5053401;28;20459;-84
2022/10/19 05:59:12;;;;;;;9.33;7.67;;;8.40;99.90;;;;;;5039890;28;20432;-82
2022/10/19 06:01:38;;;;;;;12.13;8.50;;;8.70;99.90;;;;;;5053736;28;20756;-82
2022/10/19 06:04:04;;;;;;;12.43;8.97;;;8.80;99.90;;;;;;5002096;28;20451;-83
2022/10/19 06:06:30;;;;;;;11.20;9.67;;;8.70;99.90;;;;;;5003016;28;20288;-84
2022/10/19 06:08:57;;;;;;;21.33;10.50;;;8.70;99.90;;;;;;5002262;28;20547;-83
2022/10/19 06:11:29;;;;;;;13.17;9.10;;;8.70;99.90;;;;;;5018827;28;20412;-82
2022/10/19 06:13:56;;;;;;;25.23;10.17;;;8.80;99.90;;;;;;5035590;28;20783;-82
2022/10/19 06:16:24;;;;;;;20.80;10.00;;;8.60;99.90;;;;;;5034778;28;20409;-83
2022/10/19 06:18:49;;;;;;;26.77;9.73;;;8.60;99.90;;;;;;5035271;28;20416;-82
2022/10/19 06:21:17;;;;;;;14.10;8.03;;;8.60;99.90;;;;;;5027920;28;20431;-82
2022/10/19 06:23:44;;;;;;;10.10;7.40;;;8.60;99.90;;;;;;5018671;28;20535;-82
2022/10/19 06:26:12;;;;;;;11.67;7.13;;;8.20;99.90;;;;;;5019246;28;20417;-83
2022/10/19 06:28:39;;;;;;;8.83;6.73;;;8.70;99.90;;;;;;5010677;28;20493;-81
2022/10/19 06:31:06;;;;;;;8.47;6.10;;;8.60;99.90;;;;;;5018230;28;20515;-83
2022/10/19 06:33:31;;;;;;;11.20;6.80;;;8.20;99.90;;;;;;5028682;28;20423;-82
2022/10/19 06:36:07;;;;;;;17.90;7.53;;;8.60;99.90;;;;;;5018545;28;20447;-82
2022/10/19 06:38:33;;;;;;;12.63;6.80;;;8.30;99.90;;;;;;5012594;28;20429;-81
2022/10/19 06:40:59;;;;;;;16.63;6.43;;;8.50;99.90;;;;;;5016793;28;20424;-82
2022/10/19 06:43:24;;;;;;;7.93;5.80;;;8.50;99.90;;;;;;5028671;28;20181;-83
2022/10/19 06:45:50;;;;;;;7.37;6.67;;;8.20;99.90;;;;;;5024276;28;20459;-82
2022/10/19 06:48:16;;;;;;;7.63;6.27;;;8.50;99.90;;;;;;5019602;28;20209;-82
2022/10/19 06:50:41;;;;;;;8.00;6.57;;;8.60;99.90;;;;;;5030759;28;20235;-82
2022/10/19 06:53:07;;;;;;;8.47;7.07;;;8.70;99.90;;;;;;5023309;28;20181;-83
2022/10/19 06:55:33;;;;;;;6.83;6.20;;;8.70;99.90;;;;;;5023420;28;20296;-81
2022/10/19 06:58:00;;;;;;;7.77;6.97;;;8.40;99.90;;;;;;5023664;28;20242;-82
2022/10/19 07:00:27;;;;;;;9.60;7.87;;;8.80;99.90;;;;;;5024433;28;20186;-83
2022/10/19 07:02:53;;;;;;;8.70;7.10;;;8.40;99.90;;;;;;5008091;28;20420;-82
2022/10/19 07:05:19;;;;;;;8.03;6.20;;;8.80;99.90;;;;;;5024155;28;20475;-82
2022/10/19 07:07:45;;;;;;;11.40;7.67;;;8.80;99.90;;;;;;5024886;28;20212;-82
2022/10/19 07:10:11;;;;;;;14.57;10.50;;;8.90;99.90;;;;;;5017625;28;20178;-84
2022/10/19 07:12:37;;;;;;;13.90;9.13;;;8.90;99.90;;;;;;5038141;28;20178;-82
2022/10/19 07:15:03;;;;;;;18.17;10.13;;;9.00;99.90;;;;;;5024086;28;20436;-82
2022/10/19 07:17:28;;;;;;;16.77;11.70;;;9.10;99.90;;;;;;5025280;28;20185;-83
2022/10/19 07:19:54;;;;;;;15.27;11.30;;;9.20;99.90;;;;;;5024698;28;20414;-83
2022/10/19 07:22:20;;;;;;;17.60;11.10;;;9.40;99.90;;;;;;5004974;28;20521;-81
2022/10/19 07:24:45;;;;;;;14.23;10.93;;;9.50;99.90;;;;;;5021117;28;20214;-83
2022/10/19 07:27:11;;;;;;;14.43;10.13;;;9.60;99.90;;;;;;4988287;28;20178;-82
2022/10/19 07:29:37;;;;;;;14.53;10.13;;;9.70;99.90;;;;;;5039075;28;20214;-82
2022/10/19 07:32:02;;;;;;;14.17;8.83;;;9.70;99.90;;;;;;5004816;28;20182;-82
2022/10/19 07:34:28;;;;;;;10.63;8.23;;;9.80;99.90;;;;;;4993053;28;20275;-82
2022/10/19 07:36:54;;;;;;;11.37;9.13;;;9.80;99.90;;;;;;5040571;28;20189;-81
2022/10/19 07:39:20;;;;;;;12.40;8.90;;;10.00;99.90;;;;;;5041584;28;20529;-82
2022/10/19 07:41:46;;;;;;;11.37;8.63;;;10.20;99.90;;;;;;5023262;28;20192;-82
2022/10/19 07:44:12;;;;;;;8.87;7.97;;;10.40;99.90;;;;;;5058699;28;20436;-82
2022/10/19 07:46:38;;;;;;;12.70;8.30;;;10.60;99.90;;;;;;5058803;28;20189;-82
2022/10/19 07:49:08;;;;;;;15.23;8.97;;;10.90;99.90;;;;;;5021045;28;20451;-82
2022/10/19 07:51:35;;;;;;;9.50;7.90;;;11.20;99.90;;;;;;5037934;28;20182;-82
2022/10/19 07:54:00;;;;;;;17.50;8.07;;;11.50;99.90;;;;;;5020226;28;20493;-84
2022/10/19 07:56:27;;;;;;;11.50;7.67;;;11.70;99.90;;;;;;5020751;28;20416;-83
2022/10/19 07:58:54;;;;;;;10.00;8.20;;;12.00;99.90;;;;;;5037538;28;20182;-82
2022/10/19 08:01:29;;;;;;;12.07;8.40;;;12.30;99.90;;;;;;5037612;28;20417;-81
2022/10/19 08:03:56;;;;;;;9.30;7.30;;;12.50;99.90;;;;;;5020172;28;22123;-83
2022/10/19 08:06:23;;;;;;;13.47;8.00;;;12.70;99.90;;;;;;5020436;28;20929;-82
2022/10/19 08:08:49;;;;;;;11.70;7.57;;;12.80;99.90;;;;;;5019978;28;20464;-81
2022/10/19 08:11:22;;;;;;;10.50;8.67;;;13.10;99.90;;;;;;5037222;28;20785;-83
2022/10/19 08:13:48;;;;;;;8.93;8.03;;;13.10;99.90;;;;;;5020533;28;20412;-82
2022/10/19 08:16:29;;;;;;;9.43;8.20;;;13.30;99.90;;;;;;5020978;28;20404;-81
2022/10/19 08:19:00;;;;;;;10.87;8.20;;;13.40;99.90;;;;;;5020978;28;20897;-83
2022/10/19 08:21:27;;;;;;;10.00;8.53;;;13.50;99.90;;;;;;5054654;28;20420;-83
2022/10/19 08:23:53;;;;;;;10.03;7.50;;;13.60;99.90;;;;;;5020113;28;20454;-82
2022/10/19 08:26:19;;;;;;;11.50;8.90;;;13.70;99.90;;;;;;5020485;28;20507;-82
2022/10/19 08:28:45;;;;;;;9.83;8.33;;;13.90;99.90;;;;;;5020744;28;20213;-82
2022/10/19 08:31:13;;;;;;;10.97;7.10;;;14.10;99.90;;;;;;5037117;28;20754;-83
2022/10/19 08:33:39;;;;;;;8.67;6.20;;;14.30;99.90;;;;;;5036754;28;20182;-80
2022/10/19 08:36:06;;;;;;;12.60;7.23;;;14.50;99.90;;;;;;5036759;28;20408;-82
2022/10/19 08:38:34;;;;;;;9.17;7.30;;;14.60;99.90;;;;;;5036296;28;20409;-83
2022/10/19 08:41:28;;;;;;;9.23;6.77;;;14.80;99.90;;;;;;5020386;28;20424;-81
2022/10/19 08:44:14;;;;;;;10.37;7.30;;;14.90;99.90;;;;;;5015618;28;21010;-81
2022/10/19 08:46:52;;;;;;;8.03;6.00;;;15.00;99.90;;;;;;5036884;28;20409;-82
2022/10/19 08:49:21;;;;;;;9.80;6.60;;;15.10;99.90;;;;;;5036363;28;20462;-82
2022/10/19 08:51:53;;;;;;;18.00;6.80;;;15.20;99.90;;;;;;5020015;28;20845;-82
2022/10/19 08:54:19;;;;;;;8.77;6.80;;;15.20;99.90;;;;;;5036129;28;20420;-81
2022/10/19 08:57:33;;;;;;;13.10;6.20;;;15.20;99.90;;;;;;5052485;28;20507;-82
2022/10/19 09:00:05;;;;;;;7.13;5.70;;;15.20;99.90;;;;;;4983188;28;20414;-82
2022/10/19 09:02:56;;;;;;;7.23;4.97;;;15.40;99.90;;;;;;5035769;28;20454;-84
2022/10/19 09:05:54;;;;;;;5.20;4.07;;;15.50;99.90;;;;;;5019108;28;20431;-81
2022/10/19 09:08:20;;;;;;;7.30;4.73;;;15.60;99.90;;;;;;5035827;28;20468;-80
2022/10/19 09:10:49;;;;;;;6.20;4.30;;;15.70;99.90;;;;;;5018674;28;20405;-83
2022/10/19 09:13:19;;;;;;;4.77;3.00;;;15.70;99.90;;;;;;5019191;28;21051;-82
2022/10/19 09:15:48;;;;;;;3.73;3.07;;;15.80;99.90;;;;;;5053165;28;20432;-82
2022/10/19 09:18:28;;;;;;;5.50;3.53;;;15.90;99.90;;;;;;5035550;28;20409;-83
2022/10/19 09:21:13;;;;;;;6.87;3.10;;;15.90;99.90;;;;;;5019027;28;20473;-83
2022/10/19 09:23:42;;;;;;;6.33;3.00;;;16.00;99.90;;;;;;5035046;28;20962;-82
2022/10/19 09:26:14;;;;;;;4.57;2.23;;;16.10;99.90;;;;;;5035386;28;20455;-82
2022/10/19 09:28:52;;;;;;;4.40;3.17;;;16.20;99.90;;;;;;5035323;28;20448;-83
2022/10/19 09:31:35;;;;;;;4.00;2.80;;;16.20;99.90;;;;;;5035765;28;20404;-82
2022/10/19 09:34:10;;;;;;;3.60;2.30;;;16.20;99.90;;;;;;5035240;28;20478;-83
2022/10/19 09:36:41;;;;;;;6.63;2.30;;;16.20;99.90;;;;;;5036403;28;20905;-83
2022/10/19 09:39:11;;;;;;;3.50;2.23;;;16.20;99.90;;;;;;5035673;28;20906;-82
2022/10/19 09:41:48;;;;;;;4.30;2.17;;;16.20;99.90;;;;;;5019137;28;20404;-83
2022/10/19 09:44:15;;;;;;;6.30;2.30;;;16.10;99.90;;;;;;5018935;28;20436;-83
2022/10/19 09:47:08;;;;;;;2.93;2.17;;;16.10;99.90;;;;;;5035944;28;20404;-82
2022/10/19 09:49:46;;;;;;;3.43;1.90;;;16.00;99.90;;;;;;5018840;28;20492;-83
2022/10/19 09:52:42;;;;;;;2.83;2.17;;;16.10;99.90;;;;;;5035431;28;20440;-80
2022/10/19 09:55:14;;;;;;;5.07;2.20;;;16.10;99.90;;;;;;5026790;28;20535;-83
2022/10/19 09:57:48;;;;;;;7.90;1.70;;;16.00;99.90;;;;;;5035676;28;20407;-83
2022/10/19 10:00:20;;;;;;;2.17;1.63;;;16.00;99.90;;;;;;5019075;28;20436;-83
2022/10/19 10:02:54;;;;;;;4.57;1.70;;;15.90;99.90;;;;;;5018922;28;20412;-82
2022/10/19 10:05:42;;;;;;;3.00;1.70;;;15.70;99.90;;;;;;5018439;28;20859;-82
2022/10/19 10:08:20;;;;;;;3.60;1.80;;;15.80;99.90;;;;;;5018591;28;20858;-85
2022/10/19 10:11:06;;;;;;;3.27;1.43;;;15.80;99.90;;;;;;5017543;28;20921;-83
2022/10/19 10:13:40;;;;;;;2.30;1.37;;;15.80;99.90;;;;;;5014920;28;20424;-82
2022/10/19 10:16:08;;;;;;;4.07;1.53;;;15.80;99.90;;;;;;5030607;28;20420;-84
2022/10/19 10:18:50;;;;;;;4.23;2.70;;;15.80;99.90;;;;;;4999340;28;20420;-83
2022/10/19 10:21:24;;;;;;;3.63;1.30;;;15.80;99.90;;;;;;4998610;28;20910;-84
2022/10/19 10:24:11;;;;;;;3.50;1.57;;;15.80;99.90;;;;;;5014852;28;20834;-83
2022/10/19 10:26:45;;;;;;;3.77;1.67;;;15.90;99.90;;;;;;5015684;28;20415;-83
2022/10/19 10:29:29;;;;;;;5.47;1.50;;;15.80;99.90;;;;;;5045028;28;20456;-84
2022/10/19 10:32:18;;;;;;;3.90;1.60;;;15.70;99.90;;;;;;5000029;28;20458;-83
2022/10/19 10:34:55;;;;;;;2.23;1.07;;;15.70;99.90;;;;;;4986329;28;20437;-85
2022/10/19 10:37:28;;;;;;;3.57;1.70;;;15.70;99.90;;;;;;4999352;28;20413;-83
2022/10/19 10:39:56;;;;;;;2.10;1.43;;;15.70;99.90;;;;;;4998480;28;20432;-84
2022/10/19 10:42:28;;;;;;;7.10;1.80;;;15.60;99.90;;;;;;4982430;28;20436;-84
2022/10/19 10:44:55;;;;;;;3.30;1.60;;;15.50;99.90;;;;;;4998918;28;20491;-85
2022/10/19 10:47:21;;;;;;;3.73;2.33;;;15.50;99.90;;;;;;4998898;28;20420;-85
2022/10/19 10:50:04;;;;;;;2.70;1.70;;;15.50;99.90;;;;;;5032841;28;20528;-84
2022/10/19 10:52:30;;;;;;;2.57;1.67;;;15.50;99.90;;;;;;5016023;28;20821;-83
2022/10/19 10:55:01;;;;;;;2.63;1.70;;;15.50;99.90;;;;;;4998115;28;20471;-83
2022/10/19 10:57:38;;;;;;;4.60;1.90;;;15.50;99.90;;;;;;5014801;28;20286;-83
2022/10/19 11:00:12;;;;;;;5.90;1.80;;;15.50;99.90;;;;;;5032531;28;20472;-83
2022/10/19 11:02:51;;;;;;;2.53;1.63;;;15.40;99.90;;;;;;5015033;28;20934;-84
2022/10/19 11:05:28;;;;;;;2.20;1.63;;;15.50;99.90;;;;;;5031078;28;20432;-84
2022/10/19 11:08:04;;;;;;;4.10;2.03;;;15.50;99.90;;;;;;5001651;28;20951;-84
2022/10/19 11:10:35;;;;;;;5.93;1.77;;;15.50;99.90;;;;;;5022054;28;20825;-84
2022/10/19 11:13:14;;;;;;;5.70;2.47;;;15.50;99.90;;;;;;5032176;28;20397;-83
2022/10/19 11:16:17;;;;;;;5.27;2.10;;;15.50;99.90;;;;;;5037228;28;20440;-84
2022/10/19 11:19:14;;;;;;;4.70;1.87;;;15.60;99.90;;;;;;5034801;28;20504;-84
2022/10/19 11:22:01;;;;;;;1.67;1.50;;;15.60;99.90;;;;;;5018746;28;20456;-84
2022/10/19 11:24:49;;;;;;;4.10;1.70;;;15.70;99.90;;;;;;5050304;28;20508;-84
2022/10/19 11:27:27;;;;;;;5.83;1.77;;;15.80;99.90;;;;;;5034469;28;20825;-83
2022/10/19 11:30:12;;;;;;;5.97;1.80;;;15.80;99.90;;;;;;5055567;28;20910;-85
2022/10/19 11:32:58;;;;;;;4.60;1.90;;;15.80;99.90;;;;;;5019485;28;20508;-84
2022/10/19 11:35:57;;;;;;;4.13;2.00;;;16.00;99.90;;;;;;5001233;28;20551;-85
2022/10/19 11:38:41;;;;;;;4.23;1.30;;;16.10;99.90;;;;;;5003072;28;20413;-83
2022/10/19 11:41:12;;;;;;;2.90;1.57;;;16.30;99.90;;;;;;5001885;28;20458;-84
2022/10/19 11:43:46;;;;;;;2.60;1.67;;;16.30;99.90;;;;;;5036461;28;20825;-84
2022/10/19 11:46:40;;;;;;;2.73;1.70;;;16.40;99.90;;;;;;5002539;28;20420;-84
2022/10/19 11:49:24;;;;;;;3.30;2.00;;;16.50;99.90;;;;;;5018632;28;20929;-84
2022/10/19 11:52:00;;;;;;;2.00;1.67;;;16.40;99.90;;;;;;5002509;28;20409;-83
2022/10/19 11:54:48;;;;;;;2.40;1.60;;;16.50;99.90;;;;;;5018074;28;20946;-85
2022/10/19 11:57:15;;;;;;;2.97;1.60;;;16.50;99.90;;;;;;5018184;28;20413;-83
2022/10/19 12:00:00;;;;;;;7.53;2.47;;;16.40;99.90;;;;;;5035244;28;20394;-84
2022/10/19 12:02:46;;;;;;;2.40;1.40;;;16.40;99.90;;;;;;5017729;28;20493;-84
2022/10/19 12:05:16;;;;;;;3.20;1.30;;;16.40;99.90;;;;;;5001082;28;21008;-83
2022/10/19 12:08:19;;;;;;;4.97;1.50;;;16.40;99.90;;;;;;5017384;28;21076;-83
2022/10/19 12:11:17;;;;;;;2.90;1.47;;;16.40;99.90;;;;;;5035516;28;20429;-83
2022/10/19 12:13:49;;;;;;;2.90;1.37;;;16.50;99.90;;;;;;4995089;28;20413;-82
2022/10/19 12:16:17;;;;;;;3.20;1.33;;;16.50;99.90;;;;;;5035149;28;20443;-82
2022/10/19 12:18:50;;;;;;;3.17;1.67;;;16.50;99.90;;;;;;5001074;28;20437;-83
2022/10/19 12:21:39;;;;;;;4.80;1.70;;;16.60;99.90;;;;;;5001759;28;20425;-83
2022/10/19 12:24:14;;;;;;;2.37;1.30;;;16.60;99.90;;;;;;5017084;28;20441;-82
2022/10/19 12:26:40;;;;;;;6.97;2.30;;;16.50;99.90;;;;;;5016921;28;20779;-82
2022/10/19 12:29:16;;;;;;;4.03;1.70;;;16.50;99.90;;;;;;5000909;28;20473;-82
2022/10/19 12:31:42;;;;;;;5.23;1.80;;;16.60;99.90;;;;;;5017082;28;20325;-84
2022/10/19 12:34:40;;;;;;;3.03;1.43;;;16.60;99.90;;;;;;5035438;28;20433;-82
2022/10/19 12:37:24;;;;;;;2.50;1.43;;;16.70;99.90;;;;;;5009711;28;20425;-83
2022/10/19 12:40:15;;;;;;;2.70;1.50;;;16.80;99.90;;;;;;5018500;28;20409;-84
2022/10/19 12:43:14;;;;;;;4.07;1.70;;;16.90;99.90;;;;;;5017623;28;20420;-83
2022/10/19 12:46:22;;;;;;;2.33;1.80;;;16.90;99.90;;;;;;5001877;28;20472;-84
2022/10/19 12:49:27;;;;;;;1.93;1.50;;;17.00;99.90;;;;;;5001128;28;20457;-83
2022/10/19 12:51:55;;;;;;;4.77;2.20;;;17.00;99.90;;;;;;5018338;28;20744;-82
2022/10/19 12:54:29;;;;;;;9.67;3.70;;;17.00;99.90;;;;;;5000947;28;20961;-83
2022/10/19 12:56:57;;;;;;;6.00;2.40;;;17.00;99.90;;;;;;5017842;28;20974;-83
2022/10/19 12:59:32;;;;;;;7.30;1.97;;;17.10;99.90;;;;;;5001846;28;20785;-82
2022/10/19 13:01:59;;;;;;;2.80;1.67;;;17.10;99.90;;;;;;5001797;28;20423;-84
2022/10/19 13:04:28;;;;;;;3.40;1.93;;;17.10;99.90;;;;;;5017752;28;20452;-82
2022/10/19 13:07:01;;;;;;;4.13;2.20;;;17.20;99.90;;;;;;5018758;28;20417;-83
2022/10/19 13:09:35;;;;;;;2.63;2.27;;;17.40;99.90;;;;;;5001938;28;20461;-82
2022/10/19 13:12:16;;;;;;;3.80;2.07;;;17.50;99.90;;;;;;5017906;28;20412;-84
2022/10/19 13:14:53;;;;;;;4.87;1.83;;;17.70;99.90;;;;;;5017883;28;20572;-83